Time;durP1;ratioP1;P1;durP2;ratioP2;P2;SDS_P1;SDS_P2;PMS_P1;PMS_P2;Temp;Humidity;BMP_temperature;BMP_pressure;BME280_temperature;BME280_humidity;BME280_pressure;Samples;Min_cycle;Max_cycle;Signal;HPM_P1;HPM_P2
2023/08/28 00:01:05;;;;;;;;;;;;;;;;;;5055117;28;19909;-28
2023/08/28 00:03:31;;;;;;;;;;;;;;;;;;5055034;28;19916;-20
2023/08/28 00:05:57;;;;;;;;;;;;;;;;;;5054716;28;19920;-25
2023/08/28 00:08:23;;;;;;;;;;;;;;;;;;5054756;28;20023;-23
2023/08/28 00:10:49;;;;;;;;;;;;;;;;;;5053685;28;20262;-22
2023/08/28 00:13:15;;;;;;;;;;;;;;;;;;5054664;28;20005;-25
2023/08/28 00:15:41;;;;;;;;;;;;;;;;;;5054714;28;20355;-23
2023/08/28 00:18:07;;;;;;;;;;;;;;;;;;5054649;28;20343;-22
2023/08/28 00:20:33;;;;;;;;;;;;;;;;;;5054649;28;20344;-26
2023/08/28 00:22:59;;;;;;;;;;;;;;;;;;5054663;28;20375;-24
2023/08/28 00:25:25;;;;;;;;;;;;;;;;;;5054608;28;19909;-21
2023/08/28 00:27:51;;;;;;;;;;;;;;;;;;5054512;28;19909;-24
2023/08/28 00:30:17;;;;;;;;;;;;;;;;;;5054410;28;19943;-23
2023/08/28 00:32:43;;;;;;;;;;;;;;;;;;5054394;28;19919;-25
2023/08/28 00:35:09;;;;;;;;;;;;;;;;;;5054422;28;19908;-28
2023/08/28 00:37:35;;;;;;;;;;;;;;;;;;5054734;28;19940;-24
2023/08/28 00:40:01;;;;;;;;;;;;;;;;;;5054450;28;19909;-25
2023/08/28 00:42:27;;;;;;;;;;;;;;;;;;5054424;28;20259;-23
2023/08/28 00:44:53;;;;;;;;;;;;;;;;;;5053483;28;19917;-25
2023/08/28 00:47:19;;;;;;;;;;;;;;;;;;5054362;28;19908;-21
2023/08/28 00:49:45;;;;;;;;;;;;;;;;;;5054357;28;20362;-25
2023/08/28 00:52:11;;;;;;;;;;;;;;;;;;5054487;28;20364;-24
2023/08/28 00:54:37;;;;;;;;;;;;;;;;;;5054327;28;20313;-25
2023/08/28 00:57:03;;;;;;;;;;;;;;;;;;5054266;28;20256;-30
2023/08/28 00:59:29;;;;;;;;;;;;;;;;;;5054193;28;20248;-23
2023/08/28 01:01:55;;;;;;;;;;;;;;;;;;5054871;28;19919;-24
2023/08/28 01:04:21;;;;;;;;;;;;;;;;;;5058389;28;19976;-24
2023/08/28 01:06:47;;;;;;;;;;;;;;;;;;5057832;28;19931;-28
2023/08/28 01:09:14;;;;;;;;;;;;;;;;;;5058182;28;19913;-24
2023/08/28 01:11:39;;;;;;;;;;;;;;;;;;5058221;28;19978;-22
2023/08/28 01:14:05;;;;;;;;;;;;;;;;;;5058107;28;20324;-27
2023/08/28 01:16:31;;;;;;;;;;;;;;;;;;5057911;28;20404;-26
2023/08/28 01:18:57;;;;;;;;;;;;;;;;;;5057857;28;19909;-25
2023/08/28 01:21:23;;;;;;;;;;;;;;;;;;5058123;28;19991;-26
2023/08/28 01:23:49;;;;;;;;;;;;;;;;;;5057739;28;20003;-23
2023/08/28 01:26:15;;;;;;;;;;;;;;;;;;5057989;28;20324;-26
2023/08/28 01:28:41;;;;;;;;;;;;;;;;;;5057604;28;19908;-25
2023/08/28 01:31:07;;;;;;;;;;;;;;;;;;5057585;28;19912;-26
2023/08/28 01:33:33;;;;;;;;;;;;;;;;;;5057526;28;20256;-27
2023/08/28 01:36:00;;;;;;;;;;;;;;;;;;5057702;28;20348;-29
2023/08/28 01:38:25;;;;;;;;;;;;;;;;;;5057693;28;19913;-27
2023/08/28 01:40:51;;;;;;;;;;;;;;;;;;5057660;28;20354;-31
2023/08/28 01:43:17;;;;;;;;;;;;;;;;;;5057306;28;20339;-23
2023/08/28 01:45:43;;;;;;;;;;;;;;;;;;5057271;28;19913;-25
2023/08/28 01:48:09;;;;;;;;;;;;;;;;;;5057268;28;19909;-24
2023/08/28 01:50:35;;;;;;;;;;;;;;;;;;5057132;28;19913;-25
2023/08/28 01:53:01;;;;;;;;;;;;;;;;;;5056022;28;19978;-22
2023/08/28 01:55:27;;;;;;;;;;;;;;;;;;5057124;28;19923;-29
2023/08/28 01:57:53;;;;;;;;;;;;;;;;;;5057118;28;19909;-27
2023/08/28 02:00:19;;;;;;;;;;;;;;;;;;5057117;28;19931;-28
2023/08/28 02:02:45;;;;;;;;;;;;;;;;;;5057270;28;19912;-24
2023/08/28 02:05:11;;;;;;;;;;;;;;;;;;5056977;28;19940;-26
2023/08/28 02:07:37;;;;;;;;;;;;;;;;;;5056956;28;20237;-25
2023/08/28 02:10:03;;;;;;;;;;;;;;;;;;5056814;28;19912;-25
2023/08/28 02:12:29;;;;;;;;;;;;;;;;;;5056552;28;19915;-23
2023/08/28 02:14:55;;;;;;;;;;;;;;;;;;5057000;28;20332;-28
2023/08/28 02:17:21;;;;;;;;;;;;;;;;;;5056702;28;19909;-21
2023/08/28 02:19:47;;;;;;;;;;;;;;;;;;5056909;28;19996;-25
2023/08/28 02:22:13;;;;;;;;;;;;;;;;;;5055614;28;19909;-26
2023/08/28 02:24:39;;;;;;;;;;;;;;;;;;5057192;28;19913;-25
2023/08/28 02:27:05;;;;;;;;;;;;;;;;;;5056604;28;19955;-24
2023/08/28 02:29:31;;;;;;;;;;;;;;;;;;5056376;28;19947;-24
2023/08/28 02:31:57;;;;;;;;;;;;;;;;;;5056396;28;20298;-25
2023/08/28 02:34:23;;;;;;;;;;;;;;;;;;5056709;28;19955;-25
2023/08/28 02:36:49;;;;;;;;;;;;;;;;;;5056631;28;19908;-25
2023/08/28 02:39:15;;;;;;;;;;;;;;;;;;5056566;28;19916;-29
2023/08/28 02:41:40;;;;;;;;;;;;;;;;;;5056272;28;19908;-24
2023/08/28 02:44:06;;;;;;;;;;;;;;;;;;5056402;28;19913;-24
2023/08/28 02:46:32;;;;;;;;;;;;;;;;;;5056907;28;19920;-24
2023/08/28 02:48:59;;;;;;;;;;;;;;;;;;5056043;28;19916;-23
2023/08/28 02:51:24;;;;;;;;;;;;;;;;;;5056044;28;19916;-22
2023/08/28 02:53:50;;;;;;;;;;;;;;;;;;5055939;28;19909;-26
2023/08/28 02:56:16;;;;;;;;;;;;;;;;;;5056000;28;19912;-21
2023/08/28 02:58:42;;;;;;;;;;;;;;;;;;5055928;28;19959;-23
2023/08/28 03:01:09;;;;;;;;;;;;;;;;;;5055851;28;19916;-21
2023/08/28 03:03:34;;;;;;;;;;;;;;;;;;5055796;28;19940;-22
2023/08/28 03:06:01;;;;;;;;;;;;;;;;;;5055626;28;19909;-25
2023/08/28 03:08:27;;;;;;;;;;;;;;;;;;5055618;28;19973;-29
2023/08/28 03:10:53;;;;;;;;;;;;;;;;;;5055718;28;19912;-25
2023/08/28 03:13:19;;;;;;;;;;;;;;;;;;5055677;28;20069;-23
2023/08/28 03:15:45;;;;;;;;;;;;;;;;;;5055661;28;19951;-21
2023/08/28 03:18:11;;;;;;;;;;;;;;;;;;5055584;28;19909;-30
2023/08/28 03:20:37;;;;;;;;;;;;;;;;;;5055810;28;20035;-25
2023/08/28 03:23:03;;;;;;;;;;;;;;;;;;5055393;28;19917;-28
2023/08/28 03:25:29;;;;;;;;;;;;;;;;;;5054825;28;19963;-25
2023/08/28 03:27:55;;;;;;;;;;;;;;;;;;5055409;28;19913;-25
2023/08/28 03:30:21;;;;;;;;;;;;;;;;;;5055255;28;19920;-24
2023/08/28 03:32:46;;;;;;;;;;;;;;;;;;5055171;28;20275;-22
2023/08/28 03:35:12;;;;;;;;;;;;;;;;;;5055160;28;19909;-22
2023/08/28 03:37:38;;;;;;;;;;;;;;;;;;5054093;28;19909;-21
2023/08/28 03:40:04;;;;;;;;;;;;;;;;;;5055293;28;19908;-27
2023/08/28 03:42:30;;;;;;;;;;;;;;;;;;5055184;28;19932;-30
2023/08/28 03:44:56;;;;;;;;;;;;;;;;;;5055402;28;20055;-25
2023/08/28 03:47:22;;;;;;;;;;;;;;;;;;5055170;28;20355;-25
2023/08/28 03:49:48;;;;;;;;;;;;;;;;;;5054772;28;19912;-28
2023/08/28 03:52:14;;;;;;;;;;;;;;;;;;5054985;28;19936;-28
2023/08/28 03:54:40;;;;;;;;;;;;;;;;;;5055544;28;20328;-23
2023/08/28 03:57:06;;;;;;;;;;;;;;;;;;5054757;28;19908;-27
2023/08/28 03:59:32;;;;;;;;;;;;;;;;;;5054786;28;19919;-24
2023/08/28 04:04:29;;;;;;;;;;;;;;;;;;5053291;28;19924;-22
2023/08/28 04:06:54;;;;;;;;;;;;;;;;;;5053619;28;19920;-21
2023/08/28 04:09:20;;;;;;;;;;;;;;;;;;5053351;28;19916;-21
2023/08/28 04:11:46;;;;;;;;;;;;;;;;;;5054391;28;19909;-22
2023/08/28 04:14:12;;;;;;;;;;;;;;;;;;5054319;28;19909;-21
2023/08/28 04:16:38;;;;;;;;;;;;;;;;;;5054386;28;19908;-21
2023/08/28 04:19:04;;;;;;;;;;;;;;;;;;5054284;28;19909;-20
2023/08/28 04:21:30;;;;;;;;;;;;;;;;;;5054350;28;19948;-21
2023/08/28 04:23:56;;;;;;;;;;;;;;;;;;5054245;28;19909;-22
2023/08/28 04:26:22;;;;;;;;;;;;;;;;;;5054186;28;19920;-22
2023/08/28 04:28:48;;;;;;;;;;;;;;;;;;5054178;28;19909;-24
2023/08/28 04:31:14;;;;;;;;;;;;;;;;;;5053939;28;20278;-22
2023/08/28 04:33:40;;;;;;;;;;;;;;;;;;5054185;28;20013;-19
2023/08/28 04:36:06;;;;;;;;;;;;;;;;;;5054290;28;19916;-20
2023/08/28 04:38:32;;;;;;;;;;;;;;;;;;5056557;28;19919;-19
2023/08/28 04:40:58;;;;;;;;;;;;;;;;;;5058293;28;19955;-21
2023/08/28 04:43:24;;;;;;;;;;;;;;;;;;5058055;28;19919;-20
2023/08/28 04:45:50;;;;;;;;;;;;;;;;;;5057035;28;19909;-21
2023/08/28 04:48:16;;;;;;;;;;;;;;;;;;5058227;28;19908;-21
2023/08/28 04:50:42;;;;;;;;;;;;;;;;;;5057431;28;19971;-21
2023/08/28 04:53:08;;;;;;;;;;;;;;;;;;5058293;28;19920;-19
2023/08/28 04:55:34;;;;;;;;;;;;;;;;;;5058114;28;19931;-22
2023/08/28 04:58:00;;;;;;;;;;;;;;;;;;5057057;28;19996;-21
2023/08/28 05:00:27;;;;;;;;;;;;;;;;;;5058104;28;20011;-21
2023/08/28 05:02:53;;;;;;;;;;;;;;;;;;5057559;28;19993;-21
2023/08/28 05:05:19;;;;;;;;;;;;;;;;;;5057717;28;19908;-23
2023/08/28 05:07:45;;;;;;;;;;;;;;;;;;5057692;28;19970;-22
2023/08/28 05:10:10;;;;;;;;;;;;;;;;;;5057595;28;20003;-21
2023/08/28 05:12:36;;;;;;;;;;;;;;;;;;5057505;28;19915;-20
2023/08/28 05:15:02;;;;;;;;;;;;;;;;;;5057663;28;19909;-20
2023/08/28 05:17:28;;;;;;;;;;;;;;;;;;5057655;28;19919;-20
2023/08/28 05:19:54;;;;;;;;;;;;;;;;;;5056558;28;19915;-21
2023/08/28 05:22:20;;;;;;;;;;;;;;;;;;5057582;28;19931;-19
2023/08/28 05:24:46;;;;;;;;;;;;;;;;;;5057892;28;19913;-22
2023/08/28 05:27:12;;;;;;;;;;;;;;;;;;5057367;28;19909;-20
2023/08/28 05:29:38;;;;;;;;;;;;;;;;;;5057307;28;19913;-20
2023/08/28 05:32:04;;;;;;;;;;;;;;;;;;5057396;28;19916;-21
2023/08/28 05:34:32;;;;;;;;;;;;;;;;;;5056293;28;19970;-22
2023/08/28 05:36:58;;;;;;;;;;;;;;;;;;5056244;28;20003;-22
2023/08/28 05:39:24;;;;;;;;;;;;;;;;;;5057156;28;20326;-22
2023/08/28 05:41:50;;;;;;;;;;;;;;;;;;5057057;28;19908;-22
2023/08/28 05:44:16;;;;;;;;;;;;;;;;;;5057080;28;20211;-21
2023/08/28 05:46:42;;;;;;;;;;;;;;;;;;5056760;28;20237;-20
2023/08/28 05:49:08;;;;;;;;;;;;;;;;;;5056211;28;19908;-20
2023/08/28 05:51:34;;;;;;;;;;;;;;;;;;5056634;28;19944;-19
2023/08/28 05:54:00;;;;;;;;;;;;;;;;;;5056506;28;20335;-24
2023/08/28 05:56:25;;;;;;;;;;;;;;;;;;5056608;28;20266;-20
2023/08/28 05:58:51;;;;;;;;;;;;;;;;;;5056480;28;20335;-21
2023/08/28 06:01:17;;;;;;;;;;;;;;;;;;5056605;28;19909;-20
2023/08/28 06:03:43;;;;;;;;;;;;;;;;;;5056345;28;20335;-20
2023/08/28 06:06:09;;;;;;;;;;;;;;;;;;5055390;28;20300;-21
2023/08/28 06:08:35;;;;;;;;;;;;;;;;;;5055403;28;19916;-21
2023/08/28 06:11:01;;;;;;;;;;;;;;;;;;5056584;28;19917;-22
2023/08/28 06:13:27;;;;;;;;;;;;;;;;;;5056104;28;19908;-21
2023/08/28 06:15:53;;;;;;;;;;;;;;;;;;5055667;28;19909;-21
2023/08/28 06:18:19;;;;;;;;;;;;;;;;;;5055577;28;20003;-20
2023/08/28 06:20:45;;;;;;;;;;;;;;;;;;5055832;28;19916;-20
2023/08/28 06:23:11;;;;;;;;;;;;;;;;;;5055389;28;19916;-22
2023/08/28 06:25:37;;;;;;;;;;;;;;;;;;5055552;28;19909;-23
2023/08/28 06:28:03;;;;;;;;;;;;;;;;;;5055489;28;19909;-21
2023/08/28 06:30:29;;;;;;;;;;;;;;;;;;5055331;28;19982;-21
2023/08/28 06:32:55;;;;;;;;;;;;;;;;;;5055428;28;19909;-20
2023/08/28 06:35:21;;;;;;;;;;;;;;;;;;5055576;28;20011;-20
2023/08/28 06:37:47;;;;;;;;;;;;;;;;;;5055672;28;19924;-23
2023/08/28 06:40:13;;;;;;;;;;;;;;;;;;5054704;28;20323;-21
2023/08/28 06:42:39;;;;;;;;;;;;;;;;;;5055819;28;20011;-20
2023/08/28 06:45:05;;;;;;;;;;;;;;;;;;5055650;28;19916;-21
2023/08/28 06:47:31;;;;;;;;;;;;;;;;;;5055979;28;19913;-19
2023/08/28 06:49:57;;;;;;;;;;;;;;;;;;5055554;28;19913;-27
2023/08/28 06:52:23;;;;;;;;;;;;;;;;;;5055737;28;19909;-21
2023/08/28 06:54:49;;;;;;;;;;;;;;;;;;5055849;28;19908;-21
2023/08/28 06:57:15;;;;;;;;;;;;;;;;;;5056163;28;20045;-21
2023/08/28 06:59:41;;;;;;;;;;;;;;;;;;5055047;28;20328;-21
2023/08/28 07:02:07;;;;;;;;;;;;;;;;;;5056000;28;19909;-22
2023/08/28 07:04:33;;;;;;;;;;;;;;;;;;5054411;28;19913;-20
2023/08/28 07:06:59;;;;;;;;;;;;;;;;;;5055512;28;19955;-20
2023/08/28 07:09:25;;;;;;;;;;;;;;;;;;5053968;28;19912;-21
2023/08/28 07:11:51;;;;;;;;;;;;;;;;;;5055079;28;20306;-23
2023/08/28 07:14:17;;;;;;;;;;;;;;;;;;5055224;28;20075;-21
2023/08/28 07:16:43;;;;;;;;;;;;;;;;;;5054014;28;19909;-23
2023/08/28 07:19:09;;;;;;;;;;;;;;;;;;5055186;28;19947;-22
2023/08/28 07:21:35;;;;;;;;;;;;;;;;;;5054842;28;19908;-20
2023/08/28 07:24:01;;;;;;;;;;;;;;;;;;5055117;28;20409;-22
2023/08/28 07:26:27;;;;;;;;;;;;;;;;;;5053962;28;19920;-22
2023/08/28 07:28:53;;;;;;;;;;;;;;;;;;5055102;28;20000;-20
2023/08/28 07:31:19;;;;;;;;;;;;;;;;;;5053799;28;19913;-22
2023/08/28 07:33:45;;;;;;;;;;;;;;;;;;5054968;28;20235;-21
2023/08/28 07:36:11;;;;;;;;;;;;;;;;;;5053929;28;19917;-19
2023/08/28 07:38:37;;;;;;;;;;;;;;;;;;5054931;28;20247;-20
2023/08/28 07:41:03;;;;;;;;;;;;;;;;;;5054965;28;20263;-20
2023/08/28 07:43:29;;;;;;;;;;;;;;;;;;5054945;28;19909;-22
2023/08/28 07:45:55;;;;;;;;;;;;;;;;;;5054807;28;19909;-21
2023/08/28 07:48:21;;;;;;;;;;;;;;;;;;5054646;28;20270;-20
2023/08/28 07:50:47;;;;;;;;;;;;;;;;;;5054606;28;19917;-22
2023/08/28 07:53:13;;;;;;;;;;;;;;;;;;5054497;28;19967;-21
2023/08/28 07:55:39;;;;;;;;;;;;;;;;;;5054654;28;20405;-22
2023/08/28 07:58:05;;;;;;;;;;;;;;;;;;5054551;28;19913;-21
2023/08/28 08:00:34;;;;;;;;;;;;;;;;;;5054505;28;19943;-21
2023/08/28 08:03:00;;;;;;;;;;;;;;;;;;5054229;28;19931;-22
2023/08/28 08:05:26;;;;;;;;;;;;;;;;;;5054232;28;20399;-21
2023/08/28 08:07:52;;;;;;;;;;;;;;;;;;5054168;28;19909;-22
2023/08/28 08:10:18;;;;;;;;;;;;;;;;;;5054250;28;19970;-20
2023/08/28 08:12:45;;;;;;;;;;;;;;;;;;5054076;28;19996;-20
2023/08/28 08:15:11;;;;;;;;;;;;;;;;;;5053220;28;19935;-29
2023/08/28 08:17:37;;;;;;;;;;;;;;;;;;5054232;28;20254;-21
2023/08/28 08:20:03;;;;;;;;;;;;;;;;;;5054377;28;19908;-19
2023/08/28 08:22:29;;;;;;;;;;;;;;;;;;5054490;28;19909;-29
2023/08/28 08:24:55;;;;;;;;;;;;;;;;;;5054355;28;19916;-22
2023/08/28 08:27:21;;;;;;;;;;;;;;;;;;5054012;28;19952;-21
2023/08/28 08:29:48;;;;;;;;;;;;;;;;;;5053977;28;20283;-21
2023/08/28 08:32:14;;;;;;;;;;;;;;;;;;5054070;28;19963;-21
2023/08/28 08:34:40;;;;;;;;;;;;;;;;;;5053255;28;19963;-22
2023/08/28 08:37:06;;;;;;;;;;;;;;;;;;5054486;28;19909;-21
2023/08/28 08:39:32;;;;;;;;;;;;;;;;;;5054199;28;19944;-21
2023/08/28 08:41:58;;;;;;;;;;;;;;;;;;5053818;28;19908;-22
2023/08/28 08:44:24;;;;;;;;;;;;;;;;;;5054050;28;19909;-20
2023/08/28 08:46:50;;;;;;;;;;;;;;;;;;5054211;28;19955;-22
2023/08/28 08:49:16;;;;;;;;;;;;;;;;;;5053494;28;19927;-21
2023/08/28 08:51:43;;;;;;;;;;;;;;;;;;5053596;28;20310;-20
2023/08/28 08:54:09;;;;;;;;;;;;;;;;;;5053680;28;19919;-20
2023/08/28 08:56:35;;;;;;;;;;;;;;;;;;5053661;28;19936;-22
2023/08/28 08:59:01;;;;;;;;;;;;;;;;;;5053581;28;20281;-20
2023/08/28 09:01:26;;;;;;;;;;;;;;;;;;5053516;28;20251;-20
2023/08/28 09:03:52;;;;;;;;;;;;;;;;;;5053413;28;20301;-20
2023/08/28 09:06:18;;;;;;;;;;;;;;;;;;5053455;28;19985;-19
2023/08/28 09:08:44;;;;;;;;;;;;;;;;;;5053289;28;19916;-20
2023/08/28 09:11:11;;;;;;;;;;;;;;;;;;5053425;28;19917;-21
2023/08/28 09:13:37;;;;;;;;;;;;;;;;;;5053572;28;19920;-22
2023/08/28 09:16:06;;;;;;;;;;;;;;;;;;5053565;28;19909;-21
2023/08/28 09:18:32;;;;;;;;;;;;;;;;;;5053320;28;19991;-20
2023/08/28 09:20:58;;;;;;;;;;;;;;;;;;5052188;28;19908;-19
2023/08/28 09:23:24;;;;;;;;;;;;;;;;;;5054776;28;19920;-20
2023/08/28 09:25:49;;;;;;;;;;;;;;;;;;5055983;28;19908;-21
2023/08/28 09:28:15;;;;;;;;;;;;;;;;;;5057274;28;19923;-21
2023/08/28 09:30:41;;;;;;;;;;;;;;;;;;5057670;28;20247;-22
2023/08/28 09:33:07;;;;;;;;;;;;;;;;;;5057243;28;20236;-20
2023/08/28 09:35:33;;;;;;;;;;;;;;;;;;5057677;28;20248;-21
2023/08/28 09:37:59;;;;;;;;;;;;;;;;;;5057644;28;19909;-21
2023/08/28 09:40:25;;;;;;;;;;;;;;;;;;5057343;28;20319;-22
2023/08/28 09:42:51;;;;;;;;;;;;;;;;;;5056316;28;19912;-19
2023/08/28 09:45:17;;;;;;;;;;;;;;;;;;5057664;28;20336;-21
2023/08/28 09:47:43;;;;;;;;;;;;;;;;;;5057158;28;20009;-21
2023/08/28 09:50:09;;;;;;;;;;;;;;;;;;5057169;28;19917;-22
2023/08/28 09:52:35;;;;;;;;;;;;;;;;;;5057061;28;19916;-21
2023/08/28 09:55:04;;;;;;;;;;;;;;;;;;5056909;28;19912;-21
2023/08/28 09:57:30;;;;;;;;;;;;;;;;;;5056643;28;19920;-21
2023/08/28 09:59:56;;;;;;;;;;;;;;;;;;5057002;28;19913;-22
2023/08/28 10:02:22;;;;;;;;;;;;;;;;;;5056450;28;19931;-21
2023/08/28 10:04:47;;;;;;;;;;;;;;;;;;5056848;28;19920;-21
2023/08/28 10:07:13;;;;;;;;;;;;;;;;;;5056788;28;19908;-21
2023/08/28 10:09:43;;;;;;;;;;;;;;;;;;5056547;28;19978;-20
2023/08/28 10:12:09;;;;;;;;;;;;;;;;;;5056445;28;19981;-20
2023/08/28 10:14:35;;;;;;;;;;;;;;;;;;5056719;28;19909;-22
2023/08/28 10:17:01;;;;;;;;;;;;;;;;;;5056334;28;20279;-22
2023/08/28 10:19:27;;;;;;;;;;;;;;;;;;5055120;28;19920;-20
2023/08/28 10:21:53;;;;;;;;;;;;;;;;;;5056034;28;19986;-21
2023/08/28 10:24:19;;;;;;;;;;;;;;;;;;5054988;28;20339;-22
2023/08/28 10:26:45;;;;;;;;;;;;;;;;;;5055957;28;20019;-21
2023/08/28 10:29:11;;;;;;;;;;;;;;;;;;5056246;28;19996;-21
2023/08/28 10:31:37;;;;;;;;;;;;;;;;;;5055261;28;19940;-21
2023/08/28 10:34:03;;;;;;;;;;;;;;;;;;5055751;28;19908;-21
2023/08/28 10:36:29;;;;;;;;;;;;;;;;;;5055998;28;19915;-21
2023/08/28 10:38:55;;;;;;;;;;;;;;;;;;5056197;28;19916;-20
2023/08/28 10:41:21;;;;;;;;;;;;;;;;;;5056324;28;19920;-22
2023/08/28 10:43:47;;;;;;;;;;;;;;;;;;5054700;28;19913;-21
2023/08/28 10:46:13;;;;;;;;;;;;;;;;;;5055864;28;20000;-21
2023/08/28 10:48:39;;;;;;;;;;;;;;;;;;5054675;28;19908;-22
2023/08/28 10:51:05;;;;;;;;;;;;;;;;;;5055674;28;20446;-20
2023/08/28 10:53:31;;;;;;;;;;;;;;;;;;5054609;28;19913;-21
2023/08/28 10:55:57;;;;;;;;;;;;;;;;;;5055539;28;19909;-21
2023/08/28 10:58:23;;;;;;;;;;;;;;;;;;5055421;28;19908;-22
2023/08/28 11:00:49;;;;;;;;;;;;;;;;;;5053866;28;19908;-21
2023/08/28 11:03:15;;;;;;;;;;;;;;;;;;5053641;28;20016;-21
2023/08/28 11:05:41;;;;;;;;;;;;;;;;;;5054974;28;19913;-31
2023/08/28 11:08:08;;;;;;;;;;;;;;;;;;5054721;28;20319;-21
2023/08/28 11:10:35;;;;;;;;;;;;;;;;;;5053495;28;19986;-21
2023/08/28 11:13:01;;;;;;;;;;;;;;;;;;5054404;28;19913;-21
2023/08/28 11:15:27;;;;;;;;;;;;;;;;;;5054582;28;19969;-20
2023/08/28 11:17:53;;;;;;;;;;;;;;;;;;5054632;28;19982;-20
2023/08/28 11:20:19;;;;;;;;;;;;;;;;;;5054680;28;20300;-20
2023/08/28 11:22:45;;;;;;;;;;;;;;;;;;5054410;28;19909;-22
2023/08/28 11:25:11;;;;;;;;;;;;;;;;;;5054920;28;19912;-20
2023/08/28 11:27:37;;;;;;;;;;;;;;;;;;5055058;28;19909;-23
2023/08/28 11:30:06;;;;;;;;;;;;;;;;;;5054997;28;20185;-20
2023/08/28 11:32:32;;;;;;;;;;;;;;;;;;5055331;28;19948;-21
2023/08/28 11:35:00;;;;;;;;;;;;;;;;;;5054352;28;21297;-20
2023/08/28 11:37:26;;;;;;;;;;;;;;;;;;5055165;28;20234;-22
2023/08/28 11:39:52;;;;;;;;;;;;;;;;;;5053808;28;19904;-21
2023/08/28 11:42:18;;;;;;;;;;;;;;;;;;5054841;28;20240;-21
2023/08/28 11:44:45;;;;;;;;;;;;;;;;;;5054925;28;19912;-20
2023/08/28 11:47:11;;;;;;;;;;;;;;;;;;5054192;28;19909;-21
2023/08/28 11:49:37;;;;;;;;;;;;;;;;;;5054300;28;19924;-20
2023/08/28 11:52:03;;;;;;;;;;;;;;;;;;5054905;28;19913;-20
2023/08/28 11:54:29;;;;;;;;;;;;;;;;;;5054828;28;20002;-20
2023/08/28 11:56:55;;;;;;;;;;;;;;;;;;5054948;28;20300;-22
2023/08/28 11:59:21;;;;;;;;;;;;;;;;;;5054542;28;20310;-19
2023/08/28 12:01:47;;;;;;;;;;;;;;;;;;5054683;28;19997;-20
2023/08/28 12:04:13;;;;;;;;;;;;;;;;;;5054196;28;19927;-20
2023/08/28 12:06:42;;;;;;;;;;;;;;;;;;5054205;28;20296;-20
2023/08/28 12:09:10;;;;;;;;;;;;;;;;;;5054440;28;19916;-21
2023/08/28 12:11:36;;;;;;;;;;;;;;;;;;5054320;28;20207;-20
2023/08/28 12:14:02;;;;;;;;;;;;;;;;;;5054075;28;20003;-21
2023/08/28 12:16:28;;;;;;;;;;;;;;;;;;5054108;28;20332;-22
2023/08/28 12:18:54;;;;;;;;;;;;;;;;;;5054219;28;19909;-20
2023/08/28 12:21:20;;;;;;;;;;;;;;;;;;5054353;28;20249;-20
2023/08/28 12:23:46;;;;;;;;;;;;;;;;;;5054168;28;19935;-20
2023/08/28 12:26:12;;;;;;;;;;;;;;;;;;5054282;28;19928;-21
2023/08/28 12:28:38;;;;;;;;;;;;;;;;;;5054061;28;19969;-21
2023/08/28 12:31:04;;;;;;;;;;;;;;;;;;5054075;28;19913;-23
2023/08/28 12:33:30;;;;;;;;;;;;;;;;;;5054073;28;19909;-22
2023/08/28 12:35:56;;;;;;;;;;;;;;;;;;5053673;28;20324;-20
2023/08/28 12:38:22;;;;;;;;;;;;;;;;;;5052714;28;19909;-20
2023/08/28 12:40:48;;;;;;;;;;;;;;;;;;5053780;28;19924;-24
2023/08/28 12:43:16;;;;;;;;;;;;;;;;;;5053712;28;19913;-21
2023/08/28 12:45:42;;;;;;;;;;;;;;;;;;5052858;28;19920;-23
2023/08/28 12:48:08;;;;;;;;;;;;;;;;;;5054062;28;19908;-21
2023/08/28 12:50:34;;;;;;;;;;;;;;;;;;5054397;28;20345;-22
2023/08/28 12:53:00;;;;;;;;;;;;;;;;;;5054035;28;19920;-20
2023/08/28 12:55:26;;;;;;;;;;;;;;;;;;5053991;28;20286;-19
2023/08/28 12:57:51;;;;;;;;;;;;;;;;;;5053406;28;19912;-22
2023/08/28 13:00:17;;;;;;;;;;;;;;;;;;5057698;28;20303;-20
2023/08/28 13:02:43;;;;;;;;;;;;;;;;;;5062570;28;19917;-26
2023/08/28 13:05:11;;;;;;;;;;;;;;;;;;5058477;28;19924;-22
2023/08/28 13:07:37;;;;;;;;;;;;;;;;;;5057906;28;19908;-22
2023/08/28 13:10:04;;;;;;;;;;;;;;;;;;5057669;28;19920;-20
2023/08/28 13:12:30;;;;;;;;;;;;;;;;;;5057668;28;19916;-21
2023/08/28 13:14:56;;;;;;;;;;;;;;;;;;5057770;28;19924;-20
2023/08/28 13:17:22;;;;;;;;;;;;;;;;;;5057692;28;19912;-21
2023/08/28 13:19:48;;;;;;;;;;;;;;;;;;5057683;28;19948;-21
2023/08/28 13:22:14;;;;;;;;;;;;;;;;;;5057425;28;19908;-20
2023/08/28 13:24:40;;;;;;;;;;;;;;;;;;5057403;28;20019;-20
2023/08/28 13:27:06;;;;;;;;;;;;;;;;;;5056230;28;19937;-21
2023/08/28 13:29:32;;;;;;;;;;;;;;;;;;5057371;28;19917;-20
2023/08/28 13:31:58;;;;;;;;;;;;;;;;;;5057335;28;19916;-21
2023/08/28 13:34:24;;;;;;;;;;;;;;;;;;5056427;28;19977;-22
2023/08/28 13:36:49;;;;;;;;;;;;;;;;;;5057196;28;19909;-21
2023/08/28 13:39:15;;;;;;;;;;;;;;;;;;5057023;28;19935;-20
2023/08/28 13:41:41;;;;;;;;;;;;;;;;;;5057086;28;19920;-21
2023/08/28 13:44:07;;;;;;;;;;;;;;;;;;5057013;28;19909;-20
2023/08/28 13:46:34;;;;;;;;;;;;;;;;;;5055771;28;19919;-20
2023/08/28 13:49:00;;;;;;;;;;;;;;;;;;5056563;28;19927;-20
2023/08/28 13:51:26;;;;;;;;;;;;;;;;;;5056888;28;19942;-23
2023/08/28 13:53:52;;;;;;;;;;;;;;;;;;5056690;28;20030;-21
2023/08/28 13:56:18;;;;;;;;;;;;;;;;;;5056785;28;19908;-21
2023/08/28 13:58:46;;;;;;;;;;;;;;;;;;5056891;28;19955;-21
2023/08/28 14:01:12;;;;;;;;;;;;;;;;;;5056940;28;19977;-21
2023/08/28 14:03:38;;;;;;;;;;;;;;;;;;5056513;28;19994;-21
2023/08/28 14:06:04;;;;;;;;;;;;;;;;;;5055789;28;19944;-19
2023/08/28 14:08:30;;;;;;;;;;;;;;;;;;5056253;28;19908;-20
2023/08/28 14:10:56;;;;;;;;;;;;;;;;;;5056740;28;19916;-22
2023/08/28 14:13:21;;;;;;;;;;;;;;;;;;5056599;28;19959;-19
2023/08/28 14:15:48;;;;;;;;;;;;;;;;;;5056567;28;19990;-21
2023/08/28 14:18:19;;;;;;;;;;;;;;;;;;5056822;28;20328;-22
2023/08/28 14:20:45;;;;;;;;;;;;;;;;;;5056514;28;19909;-22
2023/08/28 14:23:11;;;;;;;;;;;;;;;;;;5056407;28;20007;-22
2023/08/28 14:25:37;;;;;;;;;;;;;;;;;;5056655;28;19909;-20
2023/08/28 14:28:03;;;;;;;;;;;;;;;;;;5056117;28;19917;-22
2023/08/28 14:30:29;;;;;;;;;;;;;;;;;;5055892;28;20027;-21
2023/08/28 14:32:55;;;;;;;;;;;;;;;;;;5056031;28;19948;-20
2023/08/28 14:35:21;;;;;;;;;;;;;;;;;;5055163;28;20235;-21
2023/08/28 14:37:47;;;;;;;;;;;;;;;;;;5055153;28;19962;-21
2023/08/28 14:40:13;;;;;;;;;;;;;;;;;;5055214;28;19909;-21
2023/08/28 14:42:39;;;;;;;;;;;;;;;;;;5056145;28;19913;-21
2023/08/28 14:45:05;;;;;;;;;;;;;;;;;;5056884;28;19994;-22
2023/08/28 14:47:31;;;;;;;;;;;;;;;;;;5054821;28;20298;-21
2023/08/28 14:49:57;;;;;;;;;;;;;;;;;;5055979;28;19912;-23
2023/08/28 14:52:23;;;;;;;;;;;;;;;;;;5055532;28;20350;-21
2023/08/28 14:54:49;;;;;;;;;;;;;;;;;;5055661;28;19982;-20
2023/08/28 14:57:15;;;;;;;;;;;;;;;;;;5055849;28;19909;-21
2023/08/28 14:59:41;;;;;;;;;;;;;;;;;;5055898;28;19923;-21
2023/08/28 15:02:07;;;;;;;;;;;;;;;;;;5054388;28;19913;-22
2023/08/28 15:04:34;;;;;;;;;;;;;;;;;;5055742;28;19964;-22
2023/08/28 15:07:00;;;;;;;;;;;;;;;;;;5055720;28;19928;-21
2023/08/28 15:09:26;;;;;;;;;;;;;;;;;;5055382;28;19920;-20
2023/08/28 15:11:58;;;;;;;;;;;;;;;;;;5053891;28;20018;-21
2023/08/28 15:14:24;;;;;;;;;;;;;;;;;;5053455;28;19916;-23
2023/08/28 15:16:50;;;;;;;;;;;;;;;;;;5054495;28;20330;-20
2023/08/28 15:19:16;;;;;;;;;;;;;;;;;;5054489;28;19961;-20
2023/08/28 15:21:42;;;;;;;;;;;;;;;;;;5053834;28;19986;-20
2023/08/28 15:24:08;;;;;;;;;;;;;;;;;;5054572;28;19916;-21
2023/08/28 15:26:34;;;;;;;;;;;;;;;;;;5054305;28;19909;-22
2023/08/28 15:29:00;;;;;;;;;;;;;;;;;;5053176;28;19908;-21
2023/08/28 15:31:26;;;;;;;;;;;;;;;;;;5053297;28;19924;-22
2023/08/28 15:33:52;;;;;;;;;;;;;;;;;;5053053;28;19932;-20
2023/08/28 15:36:18;;;;;;;;;;;;;;;;;;5053703;28;19908;-21
2023/08/28 15:38:44;;;;;;;;;;;;;;;;;;5054825;28;19963;-23
2023/08/28 15:41:10;;;;;;;;;;;;;;;;;;5054652;28;19996;-20
2023/08/28 15:43:36;;;;;;;;;;;;;;;;;;5054814;28;19919;-20
2023/08/28 15:46:02;;;;;;;;;;;;;;;;;;5053868;28;20387;-21
2023/08/28 15:48:28;;;;;;;;;;;;;;;;;;5053857;28;20354;-21
2023/08/28 15:50:55;;;;;;;;;;;;;;;;;;5053811;28;19913;-21
2023/08/28 15:53:21;;;;;;;;;;;;;;;;;;5054846;28;20272;-23
2023/08/28 15:55:47;;;;;;;;;;;;;;;;;;5055176;28;19913;-19
2023/08/28 15:58:13;;;;;;;;;;;;;;;;;;5054668;28;19917;-21
2023/08/28 16:00:39;;;;;;;;;;;;;;;;;;5054768;28;20346;-23
2023/08/28 16:03:05;;;;;;;;;;;;;;;;;;5054529;28;20297;-22
2023/08/28 16:05:31;;;;;;;;;;;;;;;;;;5054988;28;19917;-23
2023/08/28 16:07:57;;;;;;;;;;;;;;;;;;5053655;28;19909;-21
2023/08/28 16:10:23;;;;;;;;;;;;;;;;;;5053352;28;19912;-20
2023/08/28 16:12:49;;;;;;;;;;;;;;;;;;5054090;28;19919;-21
2023/08/28 16:15:15;;;;;;;;;;;;;;;;;;5054672;28;19909;-21
2023/08/28 16:17:41;;;;;;;;;;;;;;;;;;5054167;28;19909;-23
2023/08/28 16:20:07;;;;;;;;;;;;;;;;;;5054216;28;19916;-20
2023/08/28 16:22:33;;;;;;;;;;;;;;;;;;5054287;28;20058;-20
2023/08/28 16:24:59;;;;;;;;;;;;;;;;;;5054204;28;20070;-19
2023/08/28 16:27:25;;;;;;;;;;;;;;;;;;5052996;28;19909;-19
2023/08/28 16:29:51;;;;;;;;;;;;;;;;;;5052930;28;20255;-21
2023/08/28 16:32:16;;;;;;;;;;;;;;;;;;5056480;28;19913;-22
2023/08/28 16:34:42;;;;;;;;;;;;;;;;;;5059731;28;19909;-22
2023/08/28 16:37:08;;;;;;;;;;;;;;;;;;5060763;28;20293;-20
2023/08/28 16:39:34;;;;;;;;;;;;;;;;;;5059708;28;19944;-19